Time;durP1;ratioP1;P1;durP2;ratioP2;P2;SDS_P1;SDS_P2;PMS_P1;PMS_P2;Temp;Humidity;BMP_temperature;BMP_pressure;BME280_temperature;BME280_humidity;BME280_pressure;Samples;Min_cycle;Max_cycle;Signal;HPM_P1;HPM_P2
2022/09/20 00:00:46;;;;;;;1.52;0.20;;;;;;;;;;5022953;28;20071;-63
2022/09/20 00:03:13;;;;;;;0.25;0.17;;;;;;;;;;5023615;28;20042;-64
2022/09/20 00:05:40;;;;;;;0.20;0.20;;;;;;;;;;5021302;28;20091;-61
2022/09/20 00:08:08;;;;;;;1.75;0.45;;;;;;;;;;5022247;28;20100;-63
2022/09/20 00:10:38;;;;;;;1.05;0.20;;;;;;;;;;5020514;28;20411;-63
2022/09/20 00:13:07;;;;;;;0.40;0.20;;;;;;;;;;5019056;28;20120;-62
2022/09/20 00:15:34;;;;;;;0.82;0.22;;;;;;;;;;5022606;28;20492;-63
2022/09/20 00:18:00;;;;;;;0.80;0.28;;;;;;;;;;5023006;28;20077;-63
2022/09/20 00:20:26;;;;;;;0.38;0.20;;;;;;;;;;5021497;28;20140;-63
2022/09/20 00:22:52;;;;;;;0.45;0.10;;;;;;;;;;5021840;28;20045;-62
2022/09/20 00:25:19;;;;;;;0.90;0.17;;;;;;;;;;5019696;28;20046;-62
2022/09/20 00:27:45;;;;;;;0.20;0.10;;;;;;;;;;5022178;28;20124;-62
2022/09/20 00:30:14;;;;;;;0.30;0.30;;;;;;;;;;5021925;28;20053;-63
2022/09/20 00:32:40;;;;;;;0.20;0.20;;;;;;;;;;5022360;28;20641;-63
2022/09/20 00:35:08;;;;;;;0.40;0.10;;;;;;;;;;5023342;28;20033;-62
2022/09/20 00:37:35;;;;;;;0.20;0.20;;;;;;;;;;5021958;28;20053;-62
2022/09/20 00:40:05;;;;;;;0.40;0.38;;;;;;;;;;5020260;28;20479;-62
2022/09/20 00:42:31;;;;;;;0.95;0.38;;;;;;;;;;5022637;28;20045;-62
2022/09/20 00:44:57;;;;;;;2.10;0.43;;;;;;;;;;5023423;28;20048;-62
2022/09/20 00:47:26;;;;;;;0.55;0.15;;;;;;;;;;5021965;28;20048;-62
2022/09/20 00:49:55;;;;;;;0.52;0.30;;;;;;;;;;5023265;28;20037;-62
2022/09/20 00:52:21;;;;;;;0.40;0.20;;;;;;;;;;5021383;28;20049;-63
2022/09/20 00:54:48;;;;;;;0.30;0.20;;;;;;;;;;5025210;28;20450;-63
2022/09/20 00:57:14;;;;;;;1.00;0.40;;;;;;;;;;5025516;28;20057;-62
2022/09/20 00:59:41;;;;;;;0.10;0.10;;;;;;;;;;5025474;28;20431;-63
2022/09/20 01:02:17;;;;;;;0.20;0.20;;;;;;;;;;5025887;28;20056;-63
2022/09/20 01:04:43;;;;;;;1.25;0.35;;;;;;;;;;5025876;28;20041;-62
2022/09/20 01:07:11;;;;;;;0.25;0.17;;;;;;;;;;5026173;28;20647;-62
2022/09/20 01:09:37;;;;;;;0.20;0.20;;;;;;;;;;5023817;28;20060;-62
2022/09/20 01:12:04;;;;;;;0.20;0.20;;;;;;;;;;5026343;28;20049;-62
2022/09/20 01:14:31;;;;;;;0.20;0.20;;;;;;;;;;5024108;28;20053;-62
2022/09/20 01:16:59;;;;;;;2.13;0.40;;;;;;;;;;5025815;28;20123;-62
2022/09/20 01:19:31;;;;;;;0.15;0.10;;;;;;;;;;5023965;28;20055;-63
2022/09/20 01:21:57;;;;;;;0.50;0.20;;;;;;;;;;5024323;28;20131;-63
2022/09/20 01:24:28;;;;;;;0.17;0.17;;;;;;;;;;5025266;28;20498;-62
2022/09/20 01:27:01;;;;;;;0.63;0.45;;;;;;;;;;5024916;28;20037;-63
2022/09/20 01:29:36;;;;;;;1.55;0.30;;;;;;;;;;5024709;28;20045;-62
2022/09/20 01:32:04;;;;;;;1.85;0.40;;;;;;;;;;5023963;28;20049;-62
2022/09/20 01:34:35;;;;;;;0.35;0.30;;;;;;;;;;5025362;28;20107;-62
2022/09/20 01:37:06;;;;;;;0.45;0.30;;;;;;;;;;5021028;28;20054;-62
2022/09/20 01:39:44;;;;;;;3.88;0.60;;;;;;;;;;5024916;28;20049;-62
2022/09/20 01:42:11;;;;;;;0.75;0.22;;;;;;;;;;5025534;28;20446;-62
2022/09/20 01:44:37;;;;;;;1.27;0.30;;;;;;;;;;5023498;28;20077;-62
2022/09/20 01:47:22;;;;;;;0.10;0.10;;;;;;;;;;5024008;28;20073;-62
2022/09/20 01:49:54;;;;;;;0.10;0.10;;;;;;;;;;5022416;28;20099;-62
2022/09/20 01:52:35;;;;;;;1.23;0.10;;;;;;;;;;5024066;28;20060;-62
2022/09/20 01:55:17;;;;;;;0.50;0.20;;;;;;;;;;5025256;28;20508;-62
2022/09/20 01:57:43;;;;;;;1.85;0.20;;;;;;;;;;5023722;28;20769;-62
2022/09/20 02:00:19;;;;;;;1.27;0.40;;;;;;;;;;5023761;28;20042;-61
2022/09/20 02:02:54;;;;;;;0.28;0.20;;;;;;;;;;5024821;28;20052;-62
2022/09/20 02:05:35;;;;;;;0.93;0.63;;;;;;;;;;5021079;28;20044;-62
2022/09/20 02:08:20;;;;;;;0.50;0.20;;;;;;;;;;5025111;28;20099;-62
2022/09/20 02:11:01;;;;;;;0.50;0.45;;;;;;;;;;5024975;28;20092;-62
2022/09/20 02:13:32;;;;;;;0.52;0.17;;;;;;;;;;5022968;28;20081;-62
2022/09/20 02:16:14;;;;;;;0.45;0.20;;;;;;;;;;5024232;28;20504;-62
2022/09/20 02:18:48;;;;;;;0.28;0.25;;;;;;;;;;5023257;28;20054;-62
2022/09/20 02:21:33;;;;;;;0.30;0.30;;;;;;;;;;5023323;28;20140;-62
2022/09/20 02:24:08;;;;;;;0.10;0.10;;;;;;;;;;5024538;28;20037;-62
2022/09/20 02:26:43;;;;;;;1.90;0.10;;;;;;;;;;5023219;28;20483;-62
2022/09/20 02:29:17;;;;;;;0.50;0.10;;;;;;;;;;5023247;28;20049;-62
2022/09/20 02:31:51;;;;;;;0.85;0.22;;;;;;;;;;5022591;28;20176;-62
2022/09/20 02:34:17;;;;;;;0.90;0.40;;;;;;;;;;5023931;28;20068;-62
2022/09/20 02:36:43;;;;;;;0.30;0.30;;;;;;;;;;5023955;28;20977;-62
2022/09/20 02:39:15;;;;;;;1.75;0.10;;;;;;;;;;5023809;28;20037;-62
2022/09/20 02:41:59;;;;;;;0.15;0.13;;;;;;;;;;5022074;28;20136;-62
2022/09/20 02:44:29;;;;;;;0.47;0.30;;;;;;;;;;5020761;28;20042;-62
2022/09/20 02:47:15;;;;;;;0.45;0.10;;;;;;;;;;5022438;28;20492;-63
2022/09/20 02:49:50;;;;;;;1.02;0.40;;;;;;;;;;5013516;28;20415;-63
2022/09/20 02:52:20;;;;;;;0.60;0.28;;;;;;;;;;5024200;28;20053;-63
2022/09/20 02:54:53;;;;;;;0.43;0.30;;;;;;;;;;5023871;28;20060;-63
2022/09/20 02:57:22;;;;;;;1.60;0.30;;;;;;;;;;5024153;28;20043;-63
2022/09/20 03:00:05;;;;;;;0.20;0.20;;;;;;;;;;5023380;28;20049;-63
2022/09/20 03:02:42;;;;;;;0.40;0.30;;;;;;;;;;5021982;28;20506;-63
2022/09/20 03:05:13;;;;;;;0.20;0.20;;;;;;;;;;5022742;28;20033;-63
2022/09/20 03:08:14;;;;;;;0.13;0.13;;;;;;;;;;5022372;28;20057;-62
2022/09/20 03:10:48;;;;;;;0.22;0.20;;;;;;;;;;4961964;28;20062;-63
2022/09/20 03:13:22;;;;;;;0.20;0.20;;;;;;;;;;5011495;28;20057;-63
2022/09/20 03:16:00;;;;;;;0.40;0.20;;;;;;;;;;5005567;28;20475;-63
2022/09/20 03:18:49;;;;;;;0.13;0.13;;;;;;;;;;5035911;28;20480;-63
2022/09/20 03:21:23;;;;;;;0.65;0.20;;;;;;;;;;5017490;28;20053;-63
2022/09/20 03:24:25;;;;;;;0.45;0.10;;;;;;;;;;5024399;28;20065;-63
2022/09/20 03:27:09;;;;;;;0.52;0.40;;;;;;;;;;4952933;28;20473;-63
2022/09/20 03:29:58;;;;;;;0.20;0.20;;;;;;;;;;5016125;28;20053;-63
2022/09/20 03:32:24;;;;;;;0.80;0.17;;;;;;;;;;5019060;28;20054;-63
2022/09/20 03:34:50;;;;;;;0.15;0.15;;;;;;;;;;5022616;28;20045;-63
2022/09/20 03:37:19;;;;;;;0.22;0.20;;;;;;;;;;5023096;28;20997;-63
2022/09/20 03:40:04;;;;;;;0.30;0.10;;;;;;;;;;5021000;28;20058;-63
2022/09/20 03:42:30;;;;;;;0.20;0.10;;;;;;;;;;5019812;28;20093;-63
2022/09/20 03:45:22;;;;;;;0.75;0.20;;;;;;;;;;5022204;28;20046;-63
2022/09/20 03:47:57;;;;;;;0.30;0.10;;;;;;;;;;5022744;28;20037;-62
2022/09/20 03:50:29;;;;;;;0.98;0.10;;;;;;;;;;5020687;28;20099;-63
2022/09/20 03:53:13;;;;;;;0.28;0.28;;;;;;;;;;5022552;28;20041;-63
2022/09/20 03:55:52;;;;;;;0.30;0.13;;;;;;;;;;5021250;28;20045;-63
2022/09/20 03:58:30;;;;;;;0.30;0.30;;;;;;;;;;5021607;28;20056;-63
2022/09/20 04:01:15;;;;;;;0.50;0.15;;;;;;;;;;5020315;28;20366;-63
2022/09/20 04:03:53;;;;;;;0.45;0.15;;;;;;;;;;5020882;28;20519;-62
2022/09/20 04:06:43;;;;;;;0.40;0.30;;;;;;;;;;5022492;28;20071;-63
2022/09/20 04:09:09;;;;;;;0.77;0.30;;;;;;;;;;5022241;28;20053;-63
2022/09/20 04:11:53;;;;;;;0.22;0.13;;;;;;;;;;5020763;28;20045;-63
2022/09/20 04:14:19;;;;;;;0.82;0.10;;;;;;;;;;5020613;28;20484;-62
2022/09/20 04:17:06;;;;;;;0.20;0.20;;;;;;;;;;5022442;28;20681;-62
2022/09/20 04:19:35;;;;;;;0.77;0.10;;;;;;;;;;5021808;28;20430;-62
2022/09/20 04:22:02;;;;;;;0.30;0.10;;;;;;;;;;5023552;28;20076;-62
2022/09/20 04:24:28;;;;;;;0.45;0.10;;;;;;;;;;5022383;28;20793;-63
2022/09/20 04:27:03;;;;;;;0.35;0.10;;;;;;;;;;5022075;28;20124;-62
2022/09/20 04:29:36;;;;;;;0.20;0.08;;;;;;;;;;5026284;28;20025;-62
2022/09/20 04:32:02;;;;;;;;;;;;;;;;;;5025818;28;20060;-62
2022/09/20 04:37:28;;;;;;;0.40;0.28;;;;;;;;;;5026924;28;20045;-62
2022/09/20 04:40:13;;;;;;;0.15;0.15;;;;;;;;;;5024869;28;20041;-62
2022/09/20 04:42:58;;;;;;;0.55;0.30;;;;;;;;;;5025798;28;20500;-62
2022/09/20 04:45:36;;;;;;;1.00;0.20;;;;;;;;;;5027314;28;20046;-62
2022/09/20 04:48:20;;;;;;;0.55;0.20;;;;;;;;;;5025873;28;20072;-62
2022/09/20 04:51:11;;;;;;;0.08;0.05;;;;;;;;;;5023929;28;20053;-62
2022/09/20 04:53:46;;;;;;;0.10;0.10;;;;;;;;;;5023291;28;20735;-62
2022/09/20 04:56:13;;;;;;;0.50;0.20;;;;;;;;;;5024809;28;20049;-62
2022/09/20 04:58:45;;;;;;;0.10;0.10;;;;;;;;;;5026415;28;20045;-62
2022/09/20 05:01:15;;;;;;;0.30;0.20;;;;;;;;;;5024008;28;20049;-62
2022/09/20 05:04:00;;;;;;;0.10;0.10;;;;;;;;;;5023844;28;20492;-62
2022/09/20 05:06:29;;;;;;;0.70;0.25;;;;;;;;;;5025590;28;20563;-62
2022/09/20 05:09:13;;;;;;;0.10;0.10;;;;;;;;;;5023232;28;20758;-62
2022/09/20 05:11:46;;;;;;;0.13;0.10;;;;;;;;;;5024465;28;20041;-62
2022/09/20 05:14:12;;;;;;;0.20;0.10;;;;;;;;;;5025604;28;20049;-62
2022/09/20 05:16:56;;;;;;;0.20;0.20;;;;;;;;;;5018542;28;20080;-62
2022/09/20 05:19:25;;;;;;;0.10;0.10;;;;;;;;;;5018744;28;20054;-62
2022/09/20 05:21:54;;;;;;;0.85;0.20;;;;;;;;;;5016282;28;20049;-62
2022/09/20 05:24:31;;;;;;;0.20;0.20;;;;;;;;;;5021489;28;20041;-62
2022/09/20 05:27:09;;;;;;;0.10;0.10;;;;;;;;;;5014917;28;20045;-63
2022/09/20 05:29:36;;;;;;;;;;;;;;;;;;5019312;28;20262;-62
2022/09/20 05:32:01;;;;;;;;;;;;;;;;;;5023955;28;20443;-63
2022/09/20 05:34:28;;;;;;;;;;;;;;;;;;5023910;28;20011;-62
2022/09/20 05:36:55;;;;;;;;;;;;;;;;;;5025092;28;20036;-62
2022/09/20 05:39:21;;;;;;;;;;;;;;;;;;5024723;28;19948;-62
2022/09/20 05:41:47;;;;;;;;;;;;;;;;;;5025269;28;20268;-62
2022/09/20 05:44:12;;;;;;;;;;;;;;;;;;5025344;28;19932;-62
2022/09/20 05:46:38;;;;;;;;;;;;;;;;;;5025910;28;20292;-62
2022/09/20 05:49:04;;;;;;;;;;;;;;;;;;5020768;28;19921;-62
2022/09/20 05:51:30;;;;;;;;;;;;;;;;;;5020866;28;19929;-62
2022/09/20 05:53:56;;;;;;;;;;;;;;;;;;5023739;28;19921;-62
2022/09/20 05:56:22;;;;;;;;;;;;;;;;;;5022892;28;20011;-62
2022/09/20 05:58:48;;;;;;;;;;;;;;;;;;5023826;28;20394;-62
2022/09/20 06:01:14;;;;;;;;;;;;;;;;;;5023082;28;19917;-62
2022/09/20 06:03:40;;;;;;;;;;;;;;;;;;5019294;28;19991;-63
2022/09/20 06:06:06;;;;;;;;;;;;;;;;;;5022067;28;20304;-61
2022/09/20 06:08:32;;;;;;;;;;;;;;;;;;5024092;28;19929;-66
2022/09/20 06:10:58;;;;;;;;;;;;;;;;;;5024758;28;19974;-65
2022/09/20 06:13:24;;;;;;;;;;;;;;;;;;5023136;28;19921;-65
2022/09/20 06:15:50;;;;;;;;;;;;;;;;;;5024134;28;19925;-66
2022/09/20 06:18:16;;;;;;;;;;;;;;;;;;5024634;28;19921;-64
2022/09/20 06:20:41;;;;;;;;;;;;;;;;;;5021618;28;19982;-65
2022/09/20 06:23:07;;;;;;;;;;;;;;;;;;5022994;28;19924;-65
2022/09/20 06:25:33;;;;;;;;;;;;;;;;;;5018894;28;20023;-65
2022/09/20 06:27:59;;;;;;;;;;;;;;;;;;5024837;28;20394;-65
2022/09/20 06:30:25;;;;;;;;;;;;;;;;;;5023196;28;19929;-65
2022/09/20 06:32:51;;;;;;;;;;;;;;;;;;5020979;28;20397;-64
2022/09/20 06:35:19;;;;;;;;;;;;;;;;;;5017025;28;19921;-65
2022/09/20 06:43:14;;;;;;;;;;;;;;;;;;5020764;28;20318;-65
2022/09/20 06:45:41;;;;;;;;;;;;;;;;;;5017187;28;19994;-65
2022/09/20 06:48:10;;;;;;;;;;;;;;;;;;5024004;28;19952;-65
2022/09/20 06:50:36;;;;;;;;;;;;;;;;;;5022891;28;20402;-65
2022/09/20 06:53:02;;;;;;;;;;;;;;;;;;5022496;28;19964;-64
2022/09/20 06:55:28;;;;;;;;;;;;;;;;;;5022942;28;19928;-65
2022/09/20 06:57:54;;;;;;;;;;;;;;;;;;5024901;28;19921;-65
2022/09/20 07:00:20;;;;;;;;;;;;;;;;;;5024684;28;19971;-66
2022/09/20 07:02:47;;;;;;;;;;;;;;;;;;5024885;28;19925;-65
2022/09/20 07:05:13;;;;;;;;;;;;;;;;;;5024735;28;19921;-65
2022/09/20 07:07:39;;;;;;;;;;;;;;;;;;5011775;28;20323;-65
2022/09/20 07:10:05;;;;;;;;;;;;;;;;;;5005139;28;20292;-65
2022/09/20 07:12:33;;;;;;;;;;;;;;;;;;5018184;28;19925;-65
2022/09/20 07:14:59;;;;;;;;;;;;;;;;;;5023914;28;19921;-65
2022/09/20 07:17:25;;;;;;;;;;;;;;;;;;5025112;28;20601;-66
2022/09/20 07:19:51;;;;;;;0.20;0.10;;;;;;;;;;5021823;28;19921;-65
2022/09/20 07:22:17;;;;;;;;;;;;;;;;;;5024900;28;19925;-65
2022/09/20 07:24:43;;;;;;;;;;;;;;;;;;5024257;28;19925;-65
2022/09/20 07:27:10;;;;;;;0.10;0.10;;;;;;;;;;5024599;28;20343;-65
2022/09/20 07:29:36;;;;;;;0.45;0.10;;;;;;;;;;5022494;28;20357;-65
2022/09/20 07:32:03;;;;;;;0.00;0.00;;;;;;;;;;5022987;28;20064;-65
2022/09/20 07:34:29;;;;;;;0.25;0.10;;;;;;;;;;5019019;28;20045;-65
2022/09/20 07:36:56;;;;;;;0.52;0.20;;;;;;;;;;5021552;28;20060;-65
2022/09/20 07:39:22;;;;;;;0.10;0.08;;;;;;;;;;5024558;28;20087;-65
2022/09/20 07:41:49;;;;;;;0.10;0.10;;;;;;;;;;5021317;28;20136;-65
2022/09/20 07:44:23;;;;;;;0.20;0.10;;;;;;;;;;5024942;28;20060;-65
2022/09/20 07:46:50;;;;;;;0.10;0.10;;;;;;;;;;5023225;28;20049;-65
2022/09/20 07:49:16;;;;;;;0.05;0.05;;;;;;;;;;5021928;28;20125;-65
2022/09/20 07:51:43;;;;;;;0.10;0.10;;;;;;;;;;5019649;28;20052;-65
2022/09/20 07:54:09;;;;;;;1.20;0.20;;;;;;;;;;5022841;28;20049;-65
2022/09/20 07:56:35;;;;;;;0.43;0.10;;;;;;;;;;5021558;28;20056;-66
2022/09/20 07:59:01;;;;;;;0.20;0.20;;;;;;;;;;5023331;28;20092;-66
2022/09/20 08:01:27;;;;;;;0.65;0.10;;;;;;;;;;5017255;28;20111;-67
2022/09/20 08:03:53;;;;;;;0.17;0.17;;;;;;;;;;5012600;28;20479;-66
2022/09/20 08:06:20;;;;;;;0.20;0.20;;;;;;;;;;5021737;28;20042;-66
2022/09/20 08:08:46;;;;;;;0.32;0.10;;;;;;;;;;5021651;28;20085;-65
2022/09/20 08:11:17;;;;;;;0.47;0.10;;;;;;;;;;5014632;28;20062;-66
2022/09/20 08:13:44;;;;;;;0.32;0.30;;;;;;;;;;5022356;28;20054;-66
2022/09/20 08:16:12;;;;;;;0.20;0.20;;;;;;;;;;5019691;28;20055;-65
2022/09/20 08:18:39;;;;;;;0.85;0.20;;;;;;;;;;5020971;28;20566;-66
2022/09/20 08:21:09;;;;;;;2.65;0.45;;;;;;;;;;5021746;28;20743;-66
2022/09/20 08:23:39;;;;;;;0.43;0.10;;;;;;;;;;5019662;28;20309;-66
2022/09/20 08:26:05;;;;;;;0.52;0.00;;;;;;;;;;5018642;28;20084;-66
2022/09/20 08:28:32;;;;;;;0.20;0.10;;;;;;;;;;5021482;28;20053;-66
2022/09/20 08:31:05;;;;;;;0.10;0.10;;;;;;;;;;5016844;28;20221;-66
2022/09/20 08:33:32;;;;;;;0.30;0.05;;;;;;;;;;5023215;28;20634;-67
2022/09/20 08:35:59;;;;;;;1.27;0.30;;;;;;;;;;5025237;28;20392;-67
2022/09/20 08:38:26;;;;;;;0.70;0.25;;;;;;;;;;5026620;28;20045;-66
2022/09/20 08:40:58;;;;;;;1.05;0.45;;;;;;;;;;5022767;28;20411;-66
2022/09/20 08:43:27;;;;;;;0.65;0.43;;;;;;;;;;5025561;28;20477;-66
2022/09/20 08:45:54;;;;;;;1.58;0.40;;;;;;;;;;5024262;28;20073;-66
2022/09/20 08:48:22;;;;;;;0.43;0.10;;;;;;;;;;5027606;28;20100;-66
2022/09/20 08:50:49;;;;;;;2.15;0.57;;;;;;;;;;5020842;28;20048;-67
2022/09/20 08:53:15;;;;;;;3.10;0.50;;;;;;;;;;5017516;28;20798;-66
2022/09/20 08:55:42;;;;;;;1.17;0.40;;;;;;;;;;5021064;28;20415;-66
2022/09/20 08:58:10;;;;;;;0.40;0.28;;;;;;;;;;5027534;28;20052;-66
2022/09/20 09:00:38;;;;;;;1.50;0.40;;;;;;;;;;5021171;28;20104;-66
2022/09/20 09:03:05;;;;;;;0.73;0.40;;;;;;;;;;5020358;28;20038;-66
2022/09/20 09:05:31;;;;;;;0.65;0.22;;;;;;;;;;5024646;28;20909;-66
2022/09/20 09:08:02;;;;;;;0.60;0.30;;;;;;;;;;5023313;28;20089;-66
2022/09/20 09:10:35;;;;;;;0.47;0.20;;;;;;;;;;5015680;28;20056;-66
2022/09/20 09:13:01;;;;;;;0.32;0.10;;;;;;;;;;5019082;28;20168;-65
2022/09/20 09:15:30;;;;;;;0.47;0.30;;;;;;;;;;5018051;28;20120;-66
2022/09/20 09:17:56;;;;;;;0.90;0.38;;;;;;;;;;5020087;28;20056;-65
2022/09/20 09:20:23;;;;;;;0.40;0.30;;;;;;;;;;5017174;28;20136;-66
2022/09/20 09:22:59;;;;;;;0.80;0.25;;;;;;;;;;5021605;28;20061;-66
2022/09/20 09:25:33;;;;;;;0.70;0.20;;;;;;;;;;5024596;28;20045;-65
2022/09/20 09:28:01;;;;;;;1.38;0.38;;;;;;;;;;5026159;28;20092;-66
2022/09/20 09:30:29;;;;;;;0.65;0.20;;;;;;;;;;5026632;28;20048;-66
2022/09/20 09:33:13;;;;;;;1.23;0.40;;;;;;;;;;5024544;28;20495;-65
2022/09/20 09:35:39;;;;;;;0.50;0.20;;;;;;;;;;5024561;28;20365;-66
2022/09/20 09:38:15;;;;;;;0.90;0.25;;;;;;;;;;5025023;28;20136;-65
2022/09/20 09:40:48;;;;;;;1.52;0.50;;;;;;;;;;5025087;28;20056;-66
2022/09/20 09:43:20;;;;;;;2.08;0.50;;;;;;;;;;5023266;28;20060;-65
2022/09/20 09:45:46;;;;;;;1.35;0.30;;;;;;;;;;5014994;28;20121;-67
2022/09/20 09:48:20;;;;;;;0.95;0.47;;;;;;;;;;5020283;28;20053;-67
2022/09/20 09:50:47;;;;;;;1.58;0.47;;;;;;;;;;5025055;28;20049;-65
2022/09/20 09:53:15;;;;;;;2.13;0.30;;;;;;;;;;5024511;28;20057;-65
2022/09/20 09:56:05;;;;;;;1.25;0.40;;;;;;;;;;5027215;28;20045;-65
2022/09/20 09:58:38;;;;;;;1.85;0.40;;;;;;;;;;5025190;28;20049;-65
2022/09/20 10:01:06;;;;;;;0.45;0.20;;;;;;;;;;5025936;28;20045;-65
2022/09/20 10:03:38;;;;;;;0.65;0.20;;;;;;;;;;5014558;28;20054;-65
2022/09/20 10:06:26;;;;;;;0.60;0.30;;;;;;;;;;5017994;28;20053;-65
2022/09/20 10:08:53;;;;;;;0.80;0.20;;;;;;;;;;5018168;28;20053;-65
2022/09/20 10:11:22;;;;;;;0.90;0.32;;;;;;;;;;5017788;28;20621;-66
2022/09/20 10:13:48;;;;;;;0.40;0.25;;;;;;;;;;5020828;28;20045;-67
2022/09/20 10:16:20;;;;;;;0.52;0.30;;;;;;;;;;5022145;28;20034;-66
2022/09/20 10:19:06;;;;;;;0.13;0.13;;;;;;;;;;5021425;28;20092;-66
2022/09/20 10:21:42;;;;;;;0.40;0.10;;;;;;;;;;5001292;28;20092;-64
2022/09/20 10:24:08;;;;;;;1.90;0.50;;;;;;;;;;5018234;28;20107;-65
2022/09/20 10:26:53;;;;;;;0.75;0.30;;;;;;;;;;5018065;28;20046;-65
2022/09/20 10:29:39;;;;;;;2.53;0.45;;;;;;;;;;5022023;28;20056;-66
2022/09/20 10:32:11;;;;;;;2.03;0.68;;;;;;;;;;5023888;28;20048;-66
2022/09/20 10:34:44;;;;;;;1.75;0.52;;;;;;;;;;5022001;28;20061;-65
2022/09/20 10:37:19;;;;;;;4.53;0.50;;;;;;;;;;5021233;28;20095;-65
2022/09/20 10:39:47;;;;;;;1.30;0.45;;;;;;;;;;5021865;28;20133;-65
2022/09/20 10:45:29;;;;;;;0.20;0.20;;;;;;;;;;5034118;28;20053;-65
2022/09/20 10:48:07;;;;;;;0.80;0.22;;;;;;;;;;5024325;28;20050;-65
2022/09/20 10:50:42;;;;;;;0.85;0.20;;;;;;;;;;5022855;28;20115;-65
2022/09/20 10:53:08;;;;;;;0.93;0.40;;;;;;;;;;5022958;28;20049;-65
2022/09/20 10:55:39;;;;;;;2.45;0.40;;;;;;;;;;5020957;28;20060;-65
2022/09/20 10:58:05;;;;;;;1.70;0.40;;;;;;;;;;5024097;28;20052;-65
2022/09/20 11:00:51;;;;;;;1.83;0.32;;;;;;;;;;5016659;28;20053;-65
2022/09/20 11:03:36;;;;;;;0.95;0.20;;;;;;;;;;5023877;28;20076;-65
2022/09/20 11:06:12;;;;;;;0.73;0.30;;;;;;;;;;5022583;28;20491;-65
2022/09/20 11:08:40;;;;;;;1.08;0.43;;;;;;;;;;5022655;28;20053;-65
2022/09/20 11:11:24;;;;;;;1.38;0.47;;;;;;;;;;5021290;28;20103;-65
2022/09/20 11:13:56;;;;;;;1.17;0.40;;;;;;;;;;5020881;28;20099;-66
2022/09/20 11:16:28;;;;;;;1.27;0.40;;;;;;;;;;5018237;28;20099;-65
2022/09/20 11:18:59;;;;;;;3.00;0.55;;;;;;;;;;5020302;28;20502;-66
2022/09/20 11:21:35;;;;;;;0.10;0.10;;;;;;;;;;5021454;28;20048;-63
2022/09/20 11:24:01;;;;;;;1.27;0.50;;;;;;;;;;5022556;28;20045;-66
2022/09/20 11:26:30;;;;;;;0.52;0.25;;;;;;;;;;5022586;28;20160;-60
2022/09/20 11:29:01;;;;;;;0.40;0.20;;;;;;;;;;5023105;28;20049;-61
2022/09/20 11:31:32;;;;;;;1.00;0.30;;;;;;;;;;5022008;28;20597;-61
2022/09/20 11:34:01;;;;;;;0.43;0.10;;;;;;;;;;5015141;28;20052;-61
2022/09/20 11:36:34;;;;;;;0.52;0.28;;;;;;;;;;5014403;28;20048;-61
2022/09/20 11:39:05;;;;;;;0.50;0.50;;;;;;;;;;5019874;28;21419;-61
2022/09/20 11:41:31;;;;;;;0.55;0.20;;;;;;;;;;5011015;28;20485;-61
2022/09/20 11:44:18;;;;;;;1.50;0.43;;;;;;;;;;5017466;28;20411;-61
2022/09/20 11:46:52;;;;;;;0.20;0.20;;;;;;;;;;5016169;28;20053;-61
2022/09/20 11:49:22;;;;;;;0.30;0.30;;;;;;;;;;5021497;28;20660;-62
2022/09/20 11:52:11;;;;;;;0.43;0.20;;;;;;;;;;5014142;28;20042;-61
2022/09/20 11:54:55;;;;;;;1.10;0.30;;;;;;;;;;5003996;28;20154;-61
2022/09/20 11:57:21;;;;;;;0.98;0.40;;;;;;;;;;5022904;28;20049;-61
2022/09/20 11:59:53;;;;;;;1.38;0.50;;;;;;;;;;5003599;28;20504;-62
2022/09/20 12:02:19;;;;;;;1.08;0.28;;;;;;;;;;5013193;28;20124;-61
2022/09/20 12:04:48;;;;;;;0.93;0.38;;;;;;;;;;5007183;28;20141;-61
2022/09/20 12:07:24;;;;;;;1.13;0.32;;;;;;;;;;5018476;28;20075;-61
2022/09/20 12:09:57;;;;;;;0.77;0.32;;;;;;;;;;5011704;28;20199;-61
2022/09/20 12:12:30;;;;;;;0.82;0.30;;;;;;;;;;5021533;28;20045;-62
2022/09/20 12:14:57;;;;;;;0.75;0.40;;;;;;;;;;5004683;28;20045;-61
2022/09/20 12:17:42;;;;;;;1.13;0.30;;;;;;;;;;5017237;28;20512;-61
2022/09/20 12:20:27;;;;;;;1.02;0.35;;;;;;;;;;5022851;28;20076;-61
2022/09/20 12:23:13;;;;;;;0.68;0.30;;;;;;;;;;5021947;28;20057;-61
2022/09/20 12:25:39;;;;;;;1.05;0.20;;;;;;;;;;5011733;28;20515;-61
2022/09/20 12:28:13;;;;;;;0.20;0.10;;;;;;;;;;5006867;28;20472;-61
2022/09/20 12:30:39;;;;;;;0.60;0.30;;;;;;;;;;5018391;28;20949;-62
2022/09/20 12:33:18;;;;;;;0.73;0.35;;;;;;;;;;5016086;28;20037;-62
2022/09/20 12:35:58;;;;;;;1.10;0.17;;;;;;;;;;5018595;28;20121;-62
2022/09/20 12:38:30;;;;;;;1.05;0.40;;;;;;;;;;5017658;28;20072;-62
2022/09/20 12:40:59;;;;;;;1.05;0.20;;;;;;;;;;5016965;28;20488;-62
2022/09/20 12:43:27;;;;;;;0.20;0.10;;;;;;;;;;5021245;28;20048;-62
2022/09/20 12:45:54;;;;;;;0.63;0.30;;;;;;;;;;5021676;28;20818;-62
2022/09/20 12:48:20;;;;;;;0.47;0.20;;;;;;;;;;5024369;28;20499;-62
2022/09/20 12:54:07;;;;;;;0.30;0.28;;;;;;;;;;5028759;28;20053;-62
2022/09/20 12:56:35;;;;;;;1.48;0.20;;;;;;;;;;5028099;28;20069;-62
2022/09/20 12:59:04;;;;;;;0.68;0.20;;;;;;;;;;5026313;28;20049;-62
2022/09/20 13:01:31;;;;;;;2.22;0.40;;;;;;;;;;5026735;28;20057;-62
2022/09/20 13:04:16;;;;;;;2.55;0.73;;;;;;;;;;5028198;28;20396;-62
2022/09/20 13:06:43;;;;;;;3.20;0.80;;;;;;;;;;5027399;28;20515;-62
2022/09/20 13:09:12;;;;;;;1.95;0.80;;;;;;;;;;5026305;28;20535;-62
2022/09/20 13:11:53;;;;;;;0.35;0.30;;;;;;;;;;5026940;28;20049;-61
2022/09/20 13:14:20;;;;;;;1.00;0.50;;;;;;;;;;5012842;28;20034;-61
2022/09/20 13:16:51;;;;;;;1.75;0.50;;;;;;;;;;5027246;28;20053;-61
2022/09/20 13:19:28;;;;;;;3.15;0.80;;;;;;;;;;5026018;28;20048;-61
2022/09/20 13:22:00;;;;;;;2.47;0.40;;;;;;;;;;5025500;28;20110;-61
2022/09/20 13:24:26;;;;;;;;;;;;;;;;;;5026843;28;20124;-61
2022/09/20 13:26:53;;;;;;;3.42;0.70;;;;;;;;;;5027239;28;20020;-62
2022/09/20 13:29:28;;;;;;;2.72;0.60;;;;;;;;;;5027282;28;20513;-61
2022/09/20 13:31:55;;;;;;;0.73;0.30;;;;;;;;;;5026857;28;20507;-61
2022/09/20 13:34:23;;;;;;;2.38;0.70;;;;;;;;;;5026108;28;20194;-62
2022/09/20 13:36:51;;;;;;;1.67;0.52;;;;;;;;;;5027919;28;20116;-61
2022/09/20 13:39:25;;;;;;;1.40;0.43;;;;;;;;;;5028088;28;20403;-61
2022/09/20 13:41:51;;;;;;;1.08;0.50;;;;;;;;;;5026935;28;20050;-61
2022/09/20 13:44:18;;;;;;;1.08;0.32;;;;;;;;;;5027846;28;20045;-61
2022/09/20 13:46:44;;;;;;;0.50;0.20;;;;;;;;;;5022823;28;20042;-62
2022/09/20 13:49:10;;;;;;;0.73;0.40;;;;;;;;;;5025858;28;20570;-61
2022/09/20 13:51:36;;;;;;;0.57;0.32;;;;;;;;;;5027064;28;20041;-61
2022/09/20 13:54:26;;;;;;;1.52;0.38;;;;;;;;;;5027265;28;20523;-60
2022/09/20 13:56:53;;;;;;;0.90;0.30;;;;;;;;;;5027230;28;20535;-62
2022/09/20 13:59:19;;;;;;;0.55;0.20;;;;;;;;;;5027112;28;20535;-61
2022/09/20 14:01:50;;;;;;;1.70;0.30;;;;;;;;;;5025946;28;20079;-62
2022/09/20 14:04:18;;;;;;;0.35;0.13;;;;;;;;;;5022781;28;20042;-61
2022/09/20 14:06:44;;;;;;;1.17;0.35;;;;;;;;;;5017983;28;20519;-61
2022/09/20 14:09:17;;;;;;;0.70;0.38;;;;;;;;;;5023962;28;20053;-62
2022/09/20 14:11:44;;;;;;;0.50;0.20;;;;;;;;;;5023704;28;20171;-61
2022/09/20 14:14:12;;;;;;;0.43;0.08;;;;;;;;;;5020846;28;20128;-63
2022/09/20 14:16:38;;;;;;;0.85;0.30;;;;;;;;;;5018401;28;20528;-61
2022/09/20 14:19:06;;;;;;;0.20;0.20;;;;;;;;;;5020046;28;20060;-61
2022/09/20 14:21:33;;;;;;;0.55;0.22;;;;;;;;;;5023825;28;20103;-61
2022/09/20 14:24:07;;;;;;;0.60;0.47;;;;;;;;;;5013570;28;20042;-62
2022/09/20 14:26:35;;;;;;;1.52;0.38;;;;;;;;;;5023782;28;20479;-61
2022/09/20 14:29:20;;;;;;;1.73;0.60;;;;;;;;;;5022331;28;20061;-61
2022/09/20 14:31:46;;;;;;;3.50;0.57;;;;;;;;;;5025534;28;20045;-61
2022/09/20 14:34:12;;;;;;;1.52;0.45;;;;;;;;;;5020349;28;20064;-61
2022/09/20 14:36:39;;;;;;;1.70;0.80;;;;;;;;;;5016922;28;20389;-62
2022/09/20 14:39:12;;;;;;;1.80;0.60;;;;;;;;;;5013084;28;20049;-61
2022/09/20 14:41:40;;;;;;;4.57;0.80;;;;;;;;;;5021277;28;20049;-61
2022/09/20 14:44:16;;;;;;;1.38;0.45;;;;;;;;;;5017610;28;20041;-61
2022/09/20 14:46:43;;;;;;;2.50;0.45;;;;;;;;;;5024358;28;20060;-61
2022/09/20 14:49:19;;;;;;;1.08;0.40;;;;;;;;;;5021825;28;20267;-61
2022/09/20 14:51:45;;;;;;;0.88;0.30;;;;;;;;;;5025276;28;20183;-61
2022/09/20 14:54:11;;;;;;;1.40;0.70;;;;;;;;;;5024415;28;20087;-61
2022/09/20 14:56:39;;;;;;;0.55;0.30;;;;;;;;;;5022375;28;20077;-61
2022/09/20 14:59:12;;;;;;;3.83;0.40;;;;;;;;;;5020555;28;20495;-61
2022/09/20 15:01:40;;;;;;;;;;;;;;;;;;5018410;28;20053;-61
2022/09/20 15:04:07;;;;;;;0.55;0.20;;;;;;;;;;5006157;28;20247;-61
2022/09/20 15:06:38;;;;;;;0.68;0.20;;;;;;;;;;5018359;28;20045;-61
2022/09/20 15:09:04;;;;;;;0.88;0.52;;;;;;;;;;5020581;28;20049;-61
2022/09/20 15:11:30;;;;;;;;;;;;;;;;;;5024277;28;20573;-60
2022/09/20 15:13:56;;;;;;;;;;;;;;;;;;5023684;28;20016;-61
2022/09/20 15:16:22;;;;;;;;;;;;;;;;;;5018565;28;19983;-61
2022/09/20 15:18:48;;;;;;;;;;;;;;;;;;5018000;28;19922;-61
2022/09/20 15:21:14;;;;;;;;;;;;;;;;;;5021842;28;19925;-61
2022/09/20 15:23:40;;;;;;;;;;;;;;;;;;5009328;28;19932;-61
2022/09/20 15:26:07;;;;;;;0.57;0.32;;;;;;;;;;5005513;28;20316;-61
2022/09/20 15:28:34;;;;;;;0.20;0.20;;;;;;;;;;5018615;28;20050;-61
2022/09/20 15:31:00;;;;;;;0.50;0.20;;;;;;;;;;5019588;28;20048;-61
2022/09/20 15:33:29;;;;;;;0.40;0.20;;;;;;;;;;5017713;28;20045;-61
2022/09/20 15:35:55;;;;;;;0.30;0.20;;;;;;;;;;5015765;28;20041;-61
2022/09/20 15:38:21;;;;;;;0.40;0.20;;;;;;;;;;5016188;28;20045;-60